Poynette, WI (53955)

12:13 PM CDT on July 24, 2016 (GMT -0500)
W9YYZ - Harmony Grove | | Change Station

Elev 863 ft 43.37 °N, 89.52 °W | Updated 0 second ago

Mostly Cloudy
Mostly Cloudy
85.8 °F
Feels Like 100 °F
N
6.0
Wind Variable Wind from WSW
Gusts 8.3 mph

Today
High -- | Low -- °F
--% Chance of Precip.
Yesterday
High -- | Low -- °F
Precip. -- in
Pressure 29.82 in
Visibility 10.0 miles
Clouds Mostly Cloudy 2700 ft
Heat Index 100 °F
Dew Point 79 °F
Humidity 81%
Rainfall 0.00 in
Snow Depth Not available.
5:39 AM 8:28 PM
Waning Gibbous, 75% visible
METAR KMSN 241653Z 24006KT 10SM BKN027 30/25 A2984 RMK AO2 SLP097 T03000250
Pressure 29.82 in
Visibility 10.0 miles
Clouds Mostly Cloudy 2700 ft
Heat Index 100 °F
Dew Point 79 °F
Humidity 81%
Rainfall 0.00 in
Snow Depth Not available.
5:39 AM 8:28 PM
Waning Gibbous, 75% visible
METAR KMSN 241653Z 24006KT 10SM BKN027 30/25 A2984 RMK AO2 SLP097 T03000250

10-Day Weather Forecast

Almanac

Astronomy

Jul. 24, 2016 Rise Set
Actual Time
Civil Twilight
Nautical Twilight
Astronomical Twilight
Moon
Length of Visible Light
Length of Day
Tomorrow will be .
, % of the Moon is Illuminated

Today's Extremes

State Highs State Lows

Community

WunderPhotos

Upload Photos

1,927,125 photos uploaded!

WunderBlog® & News

Nearby

Air Quality

  Air Quality AQ Index Pollutant
Not available.

Snow Depth

Station Depth Elevation

Earthquake Activity

City Distance Mag. Time & Date
Minimum magnitude displayed is 2.5.

Coastal Water Temperatures

Place Temperature

Stations

Nearby Weather Stations

Station Location Temp. Windchill Dew Point Humidity Wind Precip. Elev Updated Type
                   

Watches & Warnings

There are currently no watches in effect.